To NAV CANADA Home Page Login to a new session Search on AWWS site Feedback and Comments Disclaimer Vers la page française équivalente Tips FAQ What's new on the site To the Forecasts and Observations / NOTAM section To "File a Flight Plan" website Publications and other links Update of the User's profile FIC Telephone Numbers My Weather Data Folder Route Weather Data Regional Weather Data Local Weather Data To the Forecasts and Observations / NOTAM section
Request Generated 07/06/2015 at 20:11:39 UTC . Weather information available at that time is displayed.

METAR/TAF

QUEBEC/JEAN LESAGE INTL/QC    

METAR CYQB 062000Z 23010G17KT 190V260 20SM FEW040 OVC210 27/17 A3006
RMK CU1CI8 CU TR SLP179 DENSITY ALT 1500FT=
METAR CYQB 061900Z 23010G15KT 20SM FEW045 BKN210 27/16 A3008 RMK
CU1CI7 CU TR SLP187 DENSITY ALT 1500FT=
METAR CYQB 061800Z 22011KT 20SM FEW040 FEW120 BKN200 26/16 A3009 RMK
CU2AC1CI5 AC TR SLP190 DENSITY ALT 1400FT=

TAF CYQB 061738Z 0618/0718 23012KT P6SM FEW040 SCT200
BECMG 0623/0701 22005KT
FM071500 21008KT P6SM BKN030
BECMG 0715/0717 21012G22KT
RMK NXT FCST BY 070000Z=
Your time UTC time
Weather data provided by Environment Canada and NAV CANADA